Página principal
METAR-TAF:

METAR-TAF

Aeroportos :

Aeroporto Internacional de La Tontouta

Nouméa / La Tontouta, Nova Caledónia

latitude: 22-01S, longitude: 166-13E, altura: 16 m

Observação actual do tempo

O boletim foi feito há 20 minutos, às 13:00 UTC
Vento calmo
Temperatura 22°C
Humidade 88%
Pressão 1008 hPa
Visibilidade 10 km ou mais
sem nuvens abaixo de 1500 metros e sem cumulonimbus

METAR: NWWW 161300Z AUTO 00000KT CAVOK 22/20 Q1008 NOSIG

Hora: 00:20 (13:20 UTC)

Previsão

O boletim foi feito há 2 horas e 20 minutos, às 11:00 UTC
Previsão válida de 16 às 12 UTC a 17 às 12 UTC
Vento 2 kt com direcção variável
Visibilidade 10 km ou mais
sem nuvens abaixo de 1500 metros e sem cumulonimbus
Tornando-se
de 16 às 22 UTC a 16 às 24 UTC
Vento 10 kt de su-sudoeste
Tornando-se
de 17 às 06 UTC a 17 às 08 UTC
Vento 2 kt com direcção variável

TAF: NWWW 161100Z 1612/1712 VRB02KT CAVOK BECMG 1622/1624 20010KT BECMG 1706/1708 VRB02KT

Observações e previsões do tempo de mais de 4000 aeroportos (mensagens METAR e TAF).

As estações disponíveis são os pontos amarelos e vermelhos sobre o mapa.

Mova o rato sobre o mapa para ver o nome da estação.

Depois clique no ponto para visualizar as observações e previsões meteorológicas.

Para alterar o mapa : clique nos botões verdes com uma cruz preta para aumentar o zoom; no botão verde com uma pitada de zoom; ou nas setas verdes para mapas adjacentes.


METAR-TAF: